| time (UTC) | temp C | wind direction | speed KPH | gust KPH | rain 1hr cm | rain 24hr cm | rain mn cm | humidity % | barometer mb |
| 20260906215151 | 32 | 24 | 8.0 | 12.9 | 0.00 | 0.00 | 0.00 | 34 | 1017.4 |
| 20260906214649 | 31 | 62 | 12.9 | 16.1 | 0.00 | 0.00 | 0.00 | 34 | 1017.4 |
| 20260906214144 | 32 | 96 | 4.8 | 8.0 | 0.00 | 0.00 | 0.00 | 34 | 1017.5 |
| 20260906213644 | 32 | 101 | 4.8 | 12.9 | 0.00 | 0.00 | 0.00 | 34 | 1017.7 |
| 20260906213138 | 32 | 111 | 6.4 | 8.0 | 0.00 | 0.00 | 0.00 | 33 | 1017.9 |
| 20260906212636 | 32 | 65 | 3.2 | 9.7 | 0.00 | 0.00 | 0.00 | 33 | 1017.7 |
| 20260906212132 | 31 | 40 | 6.4 | 9.7 | 0.00 | 0.00 | 0.00 | 34 | 1017.8 |
| 20260906211631 | 32 | 127 | 6.4 | 11.3 | 0.00 | 0.00 | 0.00 | 33 | 1018.0 |
| 20260906211126 | 32 | 229 | 9.7 | 12.9 | 0.00 | 0.00 | 0.00 | 33 | 1017.9 |
| 20260906210622 | 32 | 43 | 1.6 | 9.7 | 0.00 | 0.00 | 0.00 | 34 | 1018.2 |
| 20260906210117 | 33 | 340 | 6.4 | 9.7 | 0.00 | 0.00 | 0.00 | 32 | 1018.3 |
| 20260906205612 | 32 | 280 | 0.0 | 8.0 | 0.00 | 0.00 | 0.00 | 34 | 1018.4 |
| 20260906205109 | 32 | 349 | 11.3 | 24.1 | 0.00 | 0.00 | 0.00 | 34 | 1018.3 |
| 20260906204607 | 31 | 277 | 4.8 | 11.3 | 0.00 | 0.00 | 0.00 | 36 | 1018.5 |
| 20260906204103 | 31 | 86 | 8.0 | 9.7 | 0.00 | 0.00 | 0.00 | 36 | 1018.6 |
| 20260906203602 | 31 | 89 | 4.8 | 8.0 | 0.00 | 0.00 | 0.00 | 36 | 1018.6 |
| 20260906203057 | 31 | 137 | 9.7 | 17.7 | 0.00 | 0.00 | 0.00 | 35 | 1018.7 |
| 20260906202554 | 31 | 69 | 11.3 | 14.5 | 0.00 | 0.00 | 0.00 | 36 | 1018.6 |
| 20260906202053 | 31 | 57 | 1.6 | 3.2 | 0.00 | 0.00 | 0.00 | 36 | 1018.9 |
| 20260906201548 | 31 | 87 | 8.0 | 12.9 | 0.00 | 0.00 | 0.00 | 37 | 1019.0 |
| 20260906201048 | 30 | 225 | 4.8 | 14.5 | 0.00 | 0.00 | 0.00 | 38 | 1019.0 |
| 20260906200544 | 30 | 64 | 6.4 | 14.5 | 0.00 | 0.00 | 0.00 | 37 | 1019.0 |
| 20260906200039 | 30 | 165 | 6.4 | 9.7 | 0.00 | 0.00 | 0.00 | 35 | 1018.9 |
| 20260906195535 | 31 | 70 | 3.2 | 9.7 | 0.00 | 0.00 | 0.00 | 35 | 1019.3 |
| 20260906195031 | 31 | 68 | 4.8 | 12.9 | 0.00 | 0.00 | 0.00 | 38 | 1019.1 |
| 20260906194527 | 30 | 74 | 4.8 | 9.7 | 0.00 | 0.00 | 0.00 | 39 | 1019.1 |
| 20260906194022 | 29 | 37 | 4.8 | 9.7 | 0.00 | 0.00 | 0.00 | 41 | 1019.1 |
| 20260906193522 | 30 | 60 | 9.7 | 12.9 | 0.00 | 0.00 | 0.00 | 41 | 1019.2 |
| 20260906193017 | 30 | 22 | 9.7 | 11.3 | 0.00 | 0.00 | 0.00 | 42 | 1019.3 |
| 20260906192513 | 29 | 43 | 3.2 | 12.9 | 0.00 | 0.00 | 0.00 | 43 | 1019.6 |
| 20260906192012 | 29 | 41 | 6.4 | 16.1 | 0.00 | 0.00 | 0.00 | 42 | 1019.4 |
| 20260906191507 | 29 | 84 | 8.0 | 11.3 | 0.00 | 0.00 | 0.00 | 41 | 1019.7 |
| 20260906191006 | 29 | 59 | 8.0 | 11.3 | 0.00 | 0.00 | 0.00 | 42 | 1019.8 |
| 20260906190505 | 29 | 80 | 6.4 | 12.9 | 0.00 | 0.00 | 0.00 | 42 | 1020.0 |
| 20260906190000 | 28 | 25 | 4.8 | 9.7 | 0.00 | 0.00 | 0.00 | 46 | 1019.8 |
| 20260906185459 | 28 | 29 | 3.2 | 9.7 | 0.00 | 0.00 | 0.00 | 45 | 1020.0 |
| 20260906184958 | 28 | 38 | 4.8 | 11.3 | 0.00 | 0.00 | 0.00 | 45 | 1020.3 |
| 20260906184454 | 28 | 7 | 4.8 | 4.8 | 0.00 | 0.00 | 0.00 | 47 | 1020.1 |
| 20260906183948 | 27 | 62 | 11.3 | 12.9 | 0.00 | 0.00 | 0.00 | 48 | 1020.4 |
| 20260906183439 | 27 | 115 | 4.8 | 12.9 | 0.00 | 0.00 | 0.00 | 48 | 1020.5 |
| 20260906182934 | 27 | 84 | 4.8 | 8.0 | 0.00 | 0.00 | 0.00 | 50 | 1020.4 |
| 20260906182430 | 27 | 68 | 4.8 | 11.3 | 0.00 | 0.00 | 0.00 | 50 | 1020.7 |
| 20260906181926 | 26 | 69 | 8.0 | 11.3 | 0.00 | 0.00 | 0.00 | 52 | 1020.7 |
| 20260906181421 | 27 | 76 | 9.7 | 14.5 | 0.00 | 0.00 | 0.00 | 52 | 1020.7 |
| 20260906180917 | 27 | 43 | 8.0 | 9.7 | 0.00 | 0.00 | 0.00 | 51 | 1021.0 |
| 20260906180412 | 26 | 343 | 3.2 | 8.0 | 0.00 | 0.00 | 0.00 | 54 | 1021.4 |
| 20260906175909 | 26 | 22 | 4.8 | 9.7 | 0.00 | 0.00 | 0.00 | 54 | 1021.4 |
| 20260906175405 | 26 | 45 | 3.2 | 9.7 | 0.00 | 0.00 | 0.00 | 56 | 1021.3 |
| 20260906174903 | 26 | 53 | 6.4 | 11.3 | 0.00 | 0.00 | 0.00 | 55 | 1021.4 |
| 20260906174403 | 25 | 67 | 3.2 | 8.0 | 0.00 | 0.00 | 0.00 | 58 | 1021.5 |
| 20260906173857 | 25 | 38 | 4.8 | 9.7 | 0.00 | 0.00 | 0.00 | 59 | 1021.6 |
| 20260906173353 | 25 | 44 | 1.6 | 3.2 | 0.00 | 0.00 | 0.00 | 56 | 1021.5 |
| 20260906172852 | 25 | 358 | 1.6 | 8.0 | 0.00 | 0.00 | 0.00 | 59 | 1021.9 |
| 20260906172348 | 25 | 76 | 4.8 | 4.8 | 0.00 | 0.00 | 0.00 | 59 | 1021.8 |
| 20260906171843 | 25 | 69 | 4.8 | 9.7 | 0.00 | 0.00 | 0.00 | 60 | 1021.9 |
| 20260906171338 | 25 | 21 | 6.4 | 9.7 | 0.00 | 0.00 | 0.00 | 61 | 1022.1 |
| 20260906170834 | 25 | 69 | 0.0 | 4.8 | 0.00 | 0.00 | 0.00 | 61 | 1022.1 |
| 20260906170330 | 23 | 54 | 3.2 | 3.2 | 0.00 | 0.00 | 0.00 | 64 | 1022.5 |
| 20260906165826 | 24 | 78 | 9.7 | 11.3 | 0.00 | 0.00 | 0.00 | 63 | 1022.5 |
| 20260906165324 | 23 | 54 | 0.0 | 8.0 | 0.00 | 0.00 | 0.00 | 65 | 1022.3 |
| 20260906164819 | 23 | 20 | 6.4 | 8.0 | 0.00 | 0.00 | 0.00 | 65 | 1022.3 |
| 20260906164314 | 23 | 307 | 8.0 | 9.7 | 0.00 | 0.00 | 0.00 | 66 | 1022.5 |
| 20260906163810 | 23 | 350 | 4.8 | 4.8 | 0.00 | 0.00 | 0.00 | 66 | 1022.5 |
| 20260906163306 | 23 | 49 | 0.0 | 8.0 | 0.00 | 0.00 | 0.00 | 67 | 1022.7 |
| 20260906162803 | 22 | 305 | 3.2 | 4.8 | 0.00 | 0.00 | 0.00 | 67 | 1022.6 |
| 20260906162305 | 22 | 68 | 4.8 | 4.8 | 0.00 | 0.00 | 0.00 | 69 | 1022.3 |
| 20260906161757 | 22 | 25 | 3.2 | 8.0 | 0.00 | 0.00 | 0.00 | 70 | 1022.6 |
| 20260906161256 | 21 | 196 | 3.2 | 3.2 | 0.00 | 0.00 | 0.00 | 71 | 1022.2 |
| 20260906160755 | 21 | 17 | 6.4 | 9.7 | 0.00 | 0.00 | 0.00 | 71 | 1022.5 |
| 20260906160250 | 21 | 28 | 4.8 | 8.0 | 0.00 | 0.00 | 0.00 | 72 | 1022.6 |
| 20260906155747 | 21 | 0 | 9.7 | 12.9 | 0.00 | 0.00 | 0.00 | 72 | 1022.3 |
| 20260906155242 | 21 | 13 | 3.2 | 9.7 | 0.00 | 0.00 | 0.00 | 74 | 1022.5 |
| 20260906154738 | 21 | 21 | 6.4 | 11.3 | 0.00 | 0.00 | 0.00 | 74 | 1022.6 |
| 20260906154232 | 20 | 348 | 6.4 | 8.0 | 0.00 | 0.00 | 0.00 | 76 | 1022.8 |
| 20260906153731 | 20 | 15 | 8.0 | 11.3 | 0.00 | 0.00 | 0.00 | 75 | 1022.8 |
| 20260906153225 | 20 | 353 | 6.4 | 12.9 | 0.00 | 0.00 | 0.00 | 76 | 1022.6 |
| 20260906152720 | 20 | 346 | 9.7 | 11.3 | 0.00 | 0.00 | 0.00 | 77 | 1022.7 |
| 20260906152215 | 20 | 354 | 11.3 | 12.9 | 0.00 | 0.00 | 0.00 | 78 | 1022.7 |
| 20260906151709 | 20 | 351 | 12.9 | 14.5 | 0.00 | 0.00 | 0.00 | 76 | 1022.6 |
| 20260906151205 | 20 | 9 | 4.8 | 12.9 | 0.00 | 0.00 | 0.00 | 78 | 1022.8 |
| 20260906150701 | 20 | 314 | 4.8 | 9.7 | 0.00 | 0.00 | 0.00 | 78 | 1022.8 |
| 20260906150156 | 19 | 8 | 8.0 | 9.7 | 0.00 | 0.00 | 0.00 | 79 | 1022.9 |
| 20260906145654 | 19 | 311 | 8.0 | 9.7 | 0.00 | 0.00 | 0.00 | 80 | 1022.8 |
| 20260906145149 | 19 | 349 | 8.0 | 12.9 | 0.00 | 0.00 | 0.00 | 79 | 1023.0 |
| 20260906144649 | 19 | 351 | 9.7 | 14.5 | 0.00 | 0.00 | 0.00 | 79 | 1022.7 |
| 20260906144144 | 19 | 4 | 9.7 | 12.9 | 0.00 | 0.00 | 0.00 | 79 | 1022.7 |
| 20260906143643 | 19 | 335 | 4.8 | 12.9 | 0.00 | 0.00 | 0.00 | 79 | 1022.9 |
| 20260906143141 | 18 | 2 | 4.8 | 9.7 | 0.00 | 0.00 | 0.00 | 80 | 1023.0 |
| 20260906142640 | 18 | 353 | 9.7 | 12.9 | 0.00 | 0.00 | 0.00 | 81 | 1022.8 |
| 20260906142135 | 18 | 355 | 8.0 | 12.9 | 0.00 | 0.00 | 0.00 | 81 | 1022.8 |
| 20260906141634 | 18 | 356 | 9.7 | 9.7 | 0.00 | 0.00 | 0.00 | 82 | 1022.8 |
| 20260906141129 | 18 | 2 | 8.0 | 11.3 | 0.00 | 0.00 | 0.00 | 82 | 1022.8 |
| 20260906140628 | 18 | 0 | 8.0 | 11.3 | 0.00 | 0.00 | 0.00 | 83 | 1022.9 |
| 20260906140124 | 18 | 337 | 9.7 | 11.3 | 0.00 | 0.00 | 0.00 | 83 | 1022.7 |
| 20260906135621 | 17 | 356 | 9.7 | 11.3 | 0.00 | 0.00 | 0.00 | 83 | 1022.7 |
| 20260906135116 | 17 | 351 | 8.0 | 11.3 | 0.00 | 0.00 | 0.00 | 84 | 1022.7 |
| 20260906134612 | 17 | 0 | 11.3 | 12.9 | 0.00 | 0.00 | 0.00 | 84 | 1022.6 |
| 20260906134107 | 17 | 342 | 8.0 | 9.7 | 0.00 | 0.00 | 0.00 | 83 | 1022.5 |
| 20260906133603 | 17 | 339 | 8.0 | 9.7 | 0.00 | 0.00 | 0.00 | 82 | 1022.5 |
| 20260906133057 | 17 | 344 | 6.4 | 8.0 | 0.00 | 0.00 | 0.00 | 81 | 1022.5 |
| 20260906132552 | 16 | 338 | 6.4 | 9.7 | 0.00 | 0.00 | 0.00 | 81 | 1022.5 |
| 20260906132048 | 16 | 326 | 9.7 | 11.3 | 0.00 | 0.00 | 0.00 | 80 | 1022.3 |
| 20260906131543 | 17 | 310 | 11.3 | 11.3 | 0.00 | 0.00 | 0.00 | 80 | 1022.6 |
| 20260906131039 | 16 | 320 | 9.7 | 11.3 | 0.00 | 0.00 | 0.00 | 80 | 1022.1 |
| 20260906130538 | 16 | 322 | 6.4 | 9.7 | 0.00 | 0.00 | 0.00 | 81 | 1022.2 |
| 20260906130033 | 16 | 315 | 8.0 | 9.7 | 0.00 | 0.00 | 0.00 | 83 | 1022.1 |
| 20260906125531 | 15 | 293 | 4.8 | 4.8 | 0.00 | 0.00 | 0.00 | 84 | 1022.1 |
| 20260906125031 | 15 | 326 | 1.6 | 3.2 | 0.00 | 0.00 | 0.00 | 84 | 1021.8 |
| 20260906124526 | 15 | 262 | 3.2 | 3.2 | 0.00 | 0.00 | 0.00 | 84 | 1022.1 |
| 20260906124021 | 15 | 262 | 4.8 | 4.8 | 0.00 | 0.00 | 0.00 | 84 | 1022.2 |
| 20260906123520 | 15 | 206 | 0.0 | 0.0 | 0.00 | 0.00 | 0.00 | 84 | 1022.0 |
| 20260906123015 | 15 | 206 | 1.6 | 3.2 | 0.00 | 0.00 | 0.00 | 84 | 1022.1 |
| 20260906122509 | 16 | 239 | 3.2 | 3.2 | 0.00 | 0.00 | 0.00 | 84 | 1022.0 |
| 20260906122006 | 15 | 292 | 4.8 | 4.8 | 0.00 | 0.00 | 0.00 | 84 | 1021.9 |
| 20260906121502 | 16 | 316 | 4.8 | 8.0 | 0.00 | 0.00 | 0.00 | 85 | 1021.9 |
| 20260906120958 | 16 | 325 | 3.2 | 3.2 | 0.00 | 0.00 | 0.00 | 85 | 1022.1 |
| 20260906120453 | 16 | 286 | 3.2 | 3.2 | 0.00 | 0.00 | 0.00 | 85 | 1022.1 |
| 20260906115949 | 16 | 308 | 1.6 | 3.2 | 0.00 | 0.00 | 0.00 | 85 | 1022.1 |
| 20260906115444 | 16 | 315 | 3.2 | 3.2 | 0.00 | 0.00 | 0.00 | 85 | 1022.0 |
| 20260906114944 | 16 | 340 | 3.2 | 3.2 | 0.00 | 0.00 | 0.00 | 85 | 1021.9 |
| 20260906114438 | 16 | 289 | 3.2 | 4.8 | 0.00 | 0.00 | 0.00 | 86 | 1022.2 |
| 20260906113935 | 15 | 284 | 4.8 | 4.8 | 0.00 | 0.00 | 0.00 | 86 | 1022.0 |
| 20260906113433 | 16 | 299 | 3.2 | 3.2 | 0.00 | 0.00 | 0.00 | 86 | 1021.6 |
| 20260906112929 | 15 | 321 | 4.8 | 4.8 | 0.00 | 0.00 | 0.00 | 85 | 1022.0 |
| 20260906112424 | 16 | 296 | 4.8 | 4.8 | 0.00 | 0.00 | 0.00 | 86 | 1021.8 |
| 20260906111920 | 16 | 324 | 6.4 | 8.0 | 0.00 | 0.00 | 0.00 | 86 | 1021.6 |
| 20260906111419 | 16 | 323 | 4.8 | 4.8 | 0.00 | 0.00 | 0.00 | 85 | 1021.6 |
| 20260906110914 | 15 | 312 | 4.8 | 4.8 | 0.00 | 0.00 | 0.00 | 85 | 1022.1 |
| 20260906110409 | 16 | 307 | 4.8 | 4.8 | 0.00 | 0.00 | 0.00 | 86 | 1021.8 |
| 20260906105909 | 16 | 301 | 3.2 | 3.2 | 0.00 | 0.00 | 0.00 | 86 | 1021.4 |
| 20260906105404 | 16 | 305 | 3.2 | 4.8 | 0.00 | 0.00 | 0.00 | 85 | 1021.5 |
| 20260906104900 | 16 | 343 | 3.2 | 3.2 | 0.00 | 0.00 | 0.00 | 86 | 1021.5 |
| 20260906104358 | 16 | 11 | 1.6 | 3.2 | 0.00 | 0.00 | 0.00 | 86 | 1021.6 |
| 20260906103858 | 17 | 10 | 3.2 | 3.2 | 0.00 | 0.00 | 0.00 | 85 | 1021.4 |
| 20260906103356 | 16 | 5 | 1.6 | 3.2 | 0.00 | 0.00 | 0.00 | 85 | 1021.6 |
| 20260906102852 | 16 | 70 | 0.0 | 0.0 | 0.00 | 0.00 | 0.00 | 84 | 1021.6 |
| 20260906102351 | 16 | 66 | 0.0 | 1.6 | 0.00 | 0.00 | 0.00 | 84 | 1021.6 |
| 20260906101846 | 17 | 91 | 1.6 | 1.6 | 0.00 | 0.00 | 0.00 | 84 | 1021.8 |
| 20260906101341 | 16 | 70 | 0.0 | 1.6 | 0.00 | 0.00 | 0.00 | 84 | 1021.5 |
| 20260906100837 | 17 | 28 | 3.2 | 3.2 | 0.00 | 0.00 | 0.00 | 84 | 1021.4 |
| 20260906100336 | 17 | 20 | 1.6 | 3.2 | 0.00 | 0.00 | 0.00 | 84 | 1021.8 |
| 20260906095831 | 17 | 19 | 4.8 | 8.0 | 0.00 | 0.00 | 0.00 | 83 | 1021.8 |
| 20260906095327 | 17 | 33 | 4.8 | 8.0 | 0.00 | 0.00 | 0.00 | 83 | 1021.3 |
| 20260906094826 | 17 | 47 | 1.6 | 3.2 | 0.00 | 0.00 | 0.00 | 82 | 1021.9 |
| 20260906094321 | 17 | 64 | 3.2 | 4.8 | 0.00 | 0.00 | 0.00 | 82 | 1021.6 |
| 20260906093818 | 17 | 62 | 1.6 | 3.2 | 0.00 | 0.00 | 0.00 | 81 | 1021.5 |
| 20260906093313 | 17 | 114 | 1.6 | 3.2 | 0.00 | 0.00 | 0.00 | 81 | 1021.6 |
| 20260906092808 | 17 | 113 | 1.6 | 3.2 | 0.00 | 0.00 | 0.00 | 80 | 1021.6 |
| 20260906092305 | 17 | 65 | 3.2 | 3.2 | 0.00 | 0.00 | 0.00 | 79 | 1021.6 |
| 20260906091758 | 17 | 45 | 0.0 | 3.2 | 0.00 | 0.00 | 0.00 | 78 | 1021.5 |
| 20260906091254 | 17 | 49 | 3.2 | 3.2 | 0.00 | 0.00 | 0.00 | 77 | 1021.4 |
| 20260906090750 | 17 | 49 | 4.8 | 4.8 | 0.00 | 0.00 | 0.00 | 76 | 1021.5 |
| 20260906090248 | 17 | 29 | 4.8 | 4.8 | 0.00 | 0.00 | 0.00 | 76 | 1021.2 |
| 20260906085748 | 18 | 17 | 6.4 | 8.0 | 0.00 | 0.00 | 0.00 | 75 | 1021.0 |
| 20260906085242 | 18 | 24 | 8.0 | 9.7 | 0.00 | 0.00 | 0.00 | 74 | 1021.0 |
| 20260906084737 | 18 | 27 | 8.0 | 9.7 | 0.00 | 0.00 | 0.00 | 74 | 1021.0 |
| 20260906084236 | 18 | 20 | 9.7 | 11.3 | 0.00 | 0.00 | 0.00 | 72 | 1020.8 |
| 20260906083731 | 18 | 12 | 11.3 | 14.5 | 0.00 | 0.00 | 0.00 | 71 | 1020.7 |
| 20260906083227 | 18 | 1 | 11.3 | 12.9 | 0.00 | 0.00 | 0.00 | 70 | 1020.5 |
| 20260906082722 | 18 | 21 | 11.3 | 12.9 | 0.00 | 0.00 | 0.00 | 69 | 1020.5 |
| 20260906082217 | 18 | 16 | 12.9 | 14.5 | 0.00 | 0.00 | 0.00 | 67 | 1020.7 |
| 20260906081713 | 18 | 2 | 11.3 | 12.9 | 0.00 | 0.00 | 0.00 | 66 | 1020.6 |
| 20260906081208 | 18 | 21 | 9.7 | 12.9 | 0.00 | 0.00 | 0.00 | 64 | 1020.7 |
| 20260906080704 | 18 | 3 | 8.0 | 12.9 | 0.00 | 0.00 | 0.00 | 63 | 1021.0 |
| 20260906080200 | 18 | 359 | 8.0 | 11.3 | 0.00 | 0.00 | 0.00 | 63 | 1021.0 |
| 20260906075700 | 19 | 20 | 9.7 | 12.9 | 0.00 | 0.00 | 0.00 | 61 | 1021.1 |
| 20260906075154 | 19 | 10 | 9.7 | 11.3 | 0.00 | 0.00 | 0.00 | 60 | 1021.2 |
| 20260906074649 | 19 | 359 | 12.9 | 17.7 | 0.00 | 0.00 | 0.00 | 59 | 1021.2 |
| 20260906074143 | 19 | 354 | 9.7 | 11.3 | 0.00 | 0.00 | 0.00 | 56 | 1021.1 |
| 20260906073638 | 20 | 14 | 8.0 | 11.3 | 0.00 | 0.00 | 0.00 | 54 | 1021.4 |
| 20260906073134 | 20 | 1 | 6.4 | 11.3 | 0.00 | 0.00 | 0.00 | 53 | 1021.1 |
| 20260906072629 | 19 | 341 | 9.7 | 12.9 | 0.00 | 0.00 | 0.00 | 54 | 1020.8 |
| 20260906072124 | 20 | 5 | 11.3 | 12.9 | 0.00 | 0.00 | 0.00 | 50 | 1020.7 |
| 20260906071620 | 20 | 359 | 11.3 | 14.5 | 0.00 | 0.00 | 0.00 | 49 | 1020.7 |
| 20260906071115 | 20 | 359 | 9.7 | 11.3 | 0.00 | 0.00 | 0.00 | 48 | 1020.8 |
| 20260906070612 | 20 | 359 | 4.8 | 8.0 | 0.00 | 0.00 | 0.00 | 48 | 1021.0 |
| 20260906070107 | 21 | 356 | 4.8 | 8.0 | 0.00 | 0.00 | 0.00 | 47 | 1020.8 |
| 20260906065607 | 21 | 328 | 8.0 | 9.7 | 0.00 | 0.00 | 0.00 | 47 | 1020.8 |
| 20260906065102 | 21 | 338 | 3.2 | 3.2 | 0.00 | 0.00 | 0.00 | 50 | 1020.6 |
| 20260906064558 | 20 | 302 | 3.2 | 3.2 | 0.00 | 0.00 | 0.00 | 50 | 1020.7 |
| 20260906064052 | 20 | 280 | 4.8 | 4.8 | 0.00 | 0.00 | 0.00 | 51 | 1020.7 |
| 20260906063548 | 21 | 303 | 8.0 | 9.7 | 0.00 | 0.00 | 0.00 | 49 | 1020.7 |
| 20260906063043 | 21 | 351 | 6.4 | 8.0 | 0.00 | 0.00 | 0.00 | 50 | 1020.5 |
| 20260906062538 | 20 | 3 | 4.8 | 4.8 | 0.00 | 0.00 | 0.00 | 53 | 1021.0 |
| 20260906062033 | 21 | 21 | 4.8 | 4.8 | 0.00 | 0.00 | 0.00 | 52 | 1020.6 |
| 20260906061529 | 22 | 29 | 4.8 | 8.0 | 0.00 | 0.00 | 0.00 | 50 | 1020.4 |
| 20260906061028 | 22 | 4 | 8.0 | 9.7 | 0.00 | 0.00 | 0.00 | 47 | 1020.5 |
| 20260906060525 | 23 | 350 | 8.0 | 9.7 | 0.00 | 0.00 | 0.00 | 45 | 1020.5 |
| 20260906060022 | 23 | 345 | 8.0 | 8.0 | 0.00 | 0.00 | 0.00 | 46 | 1021.0 |
| 20260906055518 | 23 | 350 | 4.8 | 8.0 | 0.00 | 0.00 | 0.00 | 44 | 1021.1 |
| 20260906055012 | 23 | 322 | 4.8 | 8.0 | 0.00 | 0.00 | 0.00 | 41 | 1020.8 |
| 20260906054507 | 22 | 308 | 6.4 | 8.0 | 0.00 | 0.00 | 0.00 | 42 | 1021.0 |
| 20260906054003 | 22 | 273 | 4.8 | 4.8 | 0.00 | 0.00 | 0.00 | 42 | 1021.1 |
| 20260906053459 | 22 | 256 | 4.8 | 8.0 | 0.00 | 0.00 | 0.00 | 42 | 1021.4 |
| 20260906052954 | 22 | 270 | 9.7 | 11.3 | 0.00 | 0.00 | 0.00 | 41 | 1021.3 |
| 20260906052450 | 22 | 276 | 6.4 | 9.7 | 0.00 | 0.00 | 0.00 | 43 | 1021.4 |
| 20260906051947 | 22 | 255 | 8.0 | 11.3 | 0.00 | 0.00 | 0.00 | 44 | 1021.5 |
| 20260906051442 | 21 | 250 | 14.5 | 16.1 | 0.00 | 0.00 | 0.00 | 46 | 1021.3 |
| 20260906050937 | 21 | 246 | 6.4 | 8.0 | 0.00 | 0.00 | 0.00 | 46 | 1021.4 |
| 20260906050437 | 22 | 219 | 3.2 | 3.2 | 0.00 | 0.00 | 0.00 | 44 | 1021.1 |
| 20260906045936 | 22 | 299 | 1.6 | 3.2 | 0.00 | 0.00 | 0.00 | 46 | 1020.7 |
| 20260906045435 | 22 | 352 | 3.2 | 4.8 | 0.00 | 0.00 | 0.00 | 46 | 1020.7 |
| 20260906044931 | 22 | 6 | 4.8 | 4.8 | 0.00 | 0.00 | 0.00 | 47 | 1020.5 |
| 20260906044426 | 22 | 43 | 3.2 | 3.2 | 0.00 | 0.00 | 0.00 | 46 | 1020.5 |
| 20260906043921 | 22 | 61 | 3.2 | 3.2 | 0.00 | 0.00 | 0.00 | 45 | 1020.6 |
| 20260906043417 | 22 | 37 | 3.2 | 3.2 | 0.00 | 0.00 | 0.00 | 43 | 1020.6 |
| 20260906042912 | 22 | 22 | 1.6 | 1.6 | 0.00 | 0.00 | 0.00 | 43 | 1020.6 |
| 20260906042411 | 22 | 22 | 3.2 | 4.8 | 0.00 | 0.00 | 0.00 | 42 | 1020.3 |
| 20260906041906 | 22 | 21 | 4.8 | 4.8 | 0.00 | 0.00 | 0.00 | 42 | 1020.0 |
| 20260906041403 | 22 | 0 | 4.8 | 8.0 | 0.00 | 0.00 | 0.00 | 43 | 1020.1 |
| 20260906040857 | 22 | 18 | 4.8 | 4.8 | 0.00 | 0.00 | 0.00 | 44 | 1020.3 |
| 20260906040352 | 22 | 16 | 6.4 | 8.0 | 0.00 | 0.00 | 0.00 | 44 | 1020.1 |
| 20260906035848 | 21 | 6 | 4.8 | 4.8 | 0.00 | 0.00 | 0.00 | 45 | 1020.4 |
| 20260906035343 | 22 | 33 | 4.8 | 4.8 | 0.00 | 0.00 | 0.00 | 44 | 1019.9 |
| 20260906034838 | 22 | 13 | 4.8 | 8.0 | 0.00 | 0.00 | 0.00 | 43 | 1020.0 |
| 20260906034333 | 22 | 10 | 4.8 | 4.8 | 0.00 | 0.00 | 0.00 | 44 | 1020.0 |
| 20260906033829 | 22 | 7 | 4.8 | 4.8 | 0.00 | 0.00 | 0.00 | 43 | 1020.0 |
| 20260906033328 | 22 | 14 | 4.8 | 8.0 | 0.00 | 0.00 | 0.00 | 42 | 1019.8 |
| 20260906032825 | 22 | 14 | 4.8 | 4.8 | 0.00 | 0.00 | 0.00 | 42 | 1019.7 |
| 20260906032320 | 22 | 9 | 4.8 | 4.8 | 0.00 | 0.00 | 0.00 | 42 | 1019.6 |
| 20260906031815 | 22 | 23 | 3.2 | 4.8 | 0.00 | 0.00 | 0.00 | 43 | 1019.7 |
| 20260906031311 | 22 | 16 | 4.8 | 4.8 | 0.00 | 0.00 | 0.00 | 42 | 1019.7 |
| 20260906030810 | 24 | 20 | 8.0 | 9.7 | 0.00 | 0.00 | 0.00 | 37 | 1019.4 |
| 20260906030306 | 23 | 9 | 9.7 | 11.3 | 0.00 | 0.00 | 0.00 | 37 | 1019.3 |
| 20260906025805 | 23 | 328 | 8.0 | 9.7 | 0.00 | 0.00 | 0.00 | 38 | 1019.3 |
| 20260906025259 | 24 | 346 | 6.4 | 9.7 | 0.00 | 0.00 | 0.00 | 37 | 1019.3 |
| 20260906024758 | 25 | 3 | 8.0 | 11.3 | 0.00 | 0.00 | 0.00 | 36 | 1019.2 |
| 20260906024258 | 25 | 341 | 8.0 | 11.3 | 0.00 | 0.00 | 0.00 | 36 | 1019.3 |
| 20260906023753 | 25 | 341 | 8.0 | 11.3 | 0.00 | 0.00 | 0.00 | 36 | 1019.4 |
| 20260906023248 | 25 | 13 | 8.0 | 11.3 | 0.00 | 0.00 | 0.00 | 35 | 1019.4 |
| 20260906022744 | 24 | 327 | 8.0 | 11.3 | 0.00 | 0.00 | 0.00 | 36 | 1019.2 |
| 20260906022239 | 24 | 322 | 6.4 | 9.7 | 0.00 | 0.00 | 0.00 | 37 | 1019.3 |
| 20260906021736 | 26 | 353 | 8.0 | 12.9 | 0.00 | 0.00 | 0.00 | 33 | 1019.0 |
| 20260906021234 | 26 | 345 | 8.0 | 11.3 | 0.00 | 0.00 | 0.00 | 33 | 1018.9 |
| 20260906020729 | 26 | 333 | 6.4 | 8.0 | 0.00 | 0.00 | 0.00 | 32 | 1018.9 |
| 20260906020223 | 26 | 331 | 8.0 | 11.3 | 0.00 | 0.00 | 0.00 | 32 | 1018.7 |
| 20260906015718 | 26 | 322 | 8.0 | 11.3 | 0.00 | 0.00 | 0.00 | 32 | 1018.7 |
| 20260906015216 | 27 | 309 | 8.0 | 12.9 | 0.00 | 0.00 | 0.00 | 31 | 1018.5 |
| 20260906014711 | 27 | 343 | 14.5 | 17.7 | 0.00 | 0.00 | 0.00 | 30 | 1018.4 |
| 20260906014207 | 27 | 322 | 12.9 | 14.5 | 0.00 | 0.00 | 0.00 | 30 | 1018.5 |
| 20260906013702 | 27 | 340 | 11.3 | 14.5 | 0.00 | 0.00 | 0.00 | 30 | 1018.4 |
| 20260906013157 | 27 | 337 | 12.9 | 16.1 | 0.00 | 0.00 | 0.00 | 29 | 1018.5 |
| 20260906012657 | 28 | 352 | 14.5 | 20.9 | 0.00 | 0.00 | 0.00 | 29 | 1018.4 |
| 20260906012152 | 28 | 352 | 11.3 | 14.5 | 0.00 | 0.00 | 0.00 | 28 | 1018.3 |
| 20260906011648 | 28 | 348 | 17.7 | 17.7 | 0.00 | 0.00 | 0.00 | 28 | 1018.5 |
| 20260906011142 | 29 | 342 | 17.7 | 20.9 | 0.00 | 0.00 | 0.00 | 27 | 1018.0 |
| 20260906010637 | 29 | 329 | 9.7 | 14.5 | 0.00 | 0.00 | 0.00 | 27 | 1018.3 |
| 20260906010134 | 30 | 332 | 9.7 | 12.9 | 0.00 | 0.00 | 0.00 | 27 | 1018.4 |
| 20260906005632 | 30 | 325 | 11.3 | 11.3 | 0.00 | 0.00 | 0.00 | 26 | 1018.3 |
| 20260906005127 | 30 | 310 | 8.0 | 12.9 | 0.00 | 0.00 | 0.00 | 25 | 1018.2 |
| 20260906004626 | 30 | 311 | 8.0 | 12.9 | 0.00 | 0.00 | 0.00 | 25 | 1018.2 |
| 20260906004121 | 30 | 332 | 6.4 | 9.7 | 0.00 | 0.00 | 0.00 | 25 | 1018.3 |
| 20260906003616 | 30 | 322 | 6.4 | 8.0 | 0.00 | 0.00 | 0.00 | 25 | 1018.3 |
| 20260906003112 | 31 | 307 | 9.7 | 11.3 | 0.00 | 0.00 | 0.00 | 24 | 1018.4 |
| 20260906002607 | 31 | 327 | 8.0 | 11.3 | 0.00 | 0.00 | 0.00 | 24 | 1018.3 |
| 20260906002101 | 31 | 348 | 8.0 | 11.3 | 0.00 | 0.00 | 0.00 | 24 | 1018.2 |
| 20260906001556 | 31 | 339 | 6.4 | 9.7 | 0.00 | 0.00 | 0.00 | 25 | 1017.9 |
| 20260906001051 | 31 | 341 | 11.3 | 11.3 | 0.00 | 0.00 | 0.00 | 24 | 1018.2 |
| 20260906000547 | 32 | 0 | 11.3 | 12.9 | 0.00 | 0.00 | 0.00 | 24 | 1017.8 |
| 20260906000042 | 32 | 27 | 4.8 | 8.0 | 0.00 | 0.00 | 0.00 | 22 | 1017.9 |
| 20260905235541 | 33 | 12 | 4.8 | 8.0 | 0.00 | 0.00 | 0.00 | 21 | 1017.9 |
| 20260905235036 | 32 | 0 | 4.8 | 4.8 | 0.00 | 0.00 | 0.00 | 21 | 1017.8 |
| 20260905234532 | 33 | 67 | 6.4 | 8.0 | 0.00 | 0.00 | 0.00 | 21 | 1017.9 |
| 20260905234027 | 33 | 25 | 8.0 | 9.7 | 0.00 | 0.00 | 0.00 | 21 | 1018.0 |
| 20260905233522 | 33 | 21 | 8.0 | 11.3 | 0.00 | 0.00 | 0.00 | 21 | 1017.9 |
| 20260905233021 | 34 | 22 | 8.0 | 11.3 | 0.00 | 0.00 | 0.00 | 21 | 1017.7 |
| 20260905232517 | 35 | 254 | 0.0 | 3.2 | 0.00 | 0.00 | 0.00 | 19 | 1017.8 |
| 20260905232013 | 34 | 355 | 3.2 | 8.0 | 0.00 | 0.00 | 0.00 | 20 | 1018.0 |
| 20260905231508 | 33 | 2 | 4.8 | 9.7 | 0.00 | 0.00 | 0.00 | 20 | 1017.9 |
| 20260905231004 | 34 | 331 | 8.0 | 9.7 | 0.00 | 0.00 | 0.00 | 19 | 1017.9 |
| 20260905230503 | 34 | 339 | 4.8 | 4.8 | 0.00 | 0.00 | 0.00 | 20 | 1017.9 |
| 20260905230001 | 34 | 110 | 6.4 | 9.7 | 0.00 | 0.00 | 0.00 | 19 | 1017.7 |
| 20260905225456 | 33 | 113 | 6.4 | 9.7 | 0.00 | 0.00 | 0.00 | 20 | 1017.7 |
| 20260905224951 | 34 | 45 | 19.3 | 25.7 | 0.00 | 0.00 | 0.00 | 20 | 1017.5 |
| 20260905224446 | 33 | 356 | 8.0 | 11.3 | 0.00 | 0.00 | 0.00 | 21 | 1017.7 |
| 20260905223945 | 34 | 305 | 4.8 | 9.7 | 0.00 | 0.00 | 0.00 | 20 | 1017.8 |
| 20260905223443 | 34 | 13 | 11.3 | 12.9 | 0.00 | 0.00 | 0.00 | 19 | 1017.7 |
| 20260905222943 | 33 | 41 | 3.2 | 8.0 | 0.00 | 0.00 | 0.00 | 20 | 1017.7 |
| 20260905222438 | 33 | 21 | 4.8 | 4.8 | 0.00 | 0.00 | 0.00 | 20 | 1017.8 |
| 20260905221934 | 33 | 324 | 9.7 | 12.9 | 0.00 | 0.00 | 0.00 | 20 | 1018.0 |
| 20260905221430 | 34 | 355 | 6.4 | 11.3 | 0.00 | 0.00 | 0.00 | 20 | 1017.9 |
| 20260905220926 | 34 | 11 | 6.4 | 9.7 | 0.00 | 0.00 | 0.00 | 20 | 1017.9 |
| 20260905220422 | 33 | 53 | 4.8 | 9.7 | 0.00 | 0.00 | 0.00 | 20 | 1018.0 |
| 20260905215921 | 33 | 45 | 8.0 | 11.3 | 0.00 | 0.00 | 0.00 | 20 | 1017.9 |
| 20260905215416 | 33 | 44 | 11.3 | 14.5 | 0.00 | 0.00 | 0.00 | 20 | 1018.0 |